sensor_id;sensor_type;location;lat;lon;timestamp;P1;durP1;ratioP1;P2;durP2;ratioP2
67049;SDS011;53955;52.442;13.284;2023-10-19T00:02:05;15.30;;;9.07;;
67049;SDS011;53955;52.442;13.284;2023-10-19T00:04:31;13.80;;;9.07;;
67049;SDS011;53955;52.442;13.284;2023-10-19T00:07:00;17.00;;;9.87;;
67049;SDS011;53955;52.442;13.284;2023-10-19T00:09:26;20.67;;;9.90;;
67049;SDS011;53955;52.442;13.284;2023-10-19T00:12:00;14.27;;;9.03;;
67049;SDS011;53955;52.442;13.284;2023-10-19T00:14:27;17.73;;;10.23;;
67049;SDS011;53955;52.442;13.284;2023-10-19T00:16:53;19.73;;;9.70;;
67049;SDS011;53955;52.442;13.284;2023-10-19T00:19:26;17.20;;;9.13;;
67049;SDS011;53955;52.442;13.284;2023-10-19T00:21:53;15.37;;;9.50;;
67049;SDS011;53955;52.442;13.284;2023-10-19T00:24:26;17.97;;;9.50;;
67049;SDS011;53955;52.442;13.284;2023-10-19T00:26:52;15.60;;;9.27;;
67049;SDS011;53955;52.442;13.284;2023-10-19T00:29:20;16.43;;;9.67;;
67049;SDS011;53955;52.442;13.284;2023-10-19T00:31:55;17.03;;;9.27;;
67049;SDS011;53955;52.442;13.284;2023-10-19T00:34:23;21.67;;;10.00;;
67049;SDS011;53955;52.442;13.284;2023-10-19T00:36:51;18.93;;;10.37;;
67049;SDS011;53955;52.442;13.284;2023-10-19T00:39:20;18.23;;;9.40;;
67049;SDS011;53955;52.442;13.284;2023-10-19T00:41:47;15.77;;;9.90;;
67049;SDS011;53955;52.442;13.284;2023-10-19T00:44:14;16.27;;;8.73;;
67049;SDS011;53955;52.442;13.284;2023-10-19T00:46:47;18.97;;;9.47;;
67049;SDS011;53955;52.442;13.284;2023-10-19T00:49:25;18.83;;;9.43;;
67049;SDS011;53955;52.442;13.284;2023-10-19T00:51:54;15.63;;;10.27;;
67049;SDS011;53955;52.442;13.284;2023-10-19T00:54:29;14.73;;;9.23;;
67049;SDS011;53955;52.442;13.284;2023-10-19T00:57:05;17.10;;;9.97;;
67049;SDS011;53955;52.442;13.284;2023-10-19T00:59:33;17.97;;;9.80;;
67049;SDS011;53955;52.442;13.284;2023-10-19T01:02:04;27.37;;;10.00;;
67049;SDS011;53955;52.442;13.284;2023-10-19T01:04:42;23.60;;;10.50;;
67049;SDS011;53955;52.442;13.284;2023-10-19T01:07:12;17.77;;;9.20;;
67049;SDS011;53955;52.442;13.284;2023-10-19T01:09:41;15.53;;;9.27;;
67049;SDS011;53955;52.442;13.284;2023-10-19T01:12:09;17.23;;;9.87;;
67049;SDS011;53955;52.442;13.284;2023-10-19T01:15:03;19.83;;;10.40;;
67049;SDS011;53955;52.442;13.284;2023-10-19T01:17:32;17.93;;;10.07;;
67049;SDS011;53955;52.442;13.284;2023-10-19T01:20:03;16.40;;;9.93;;
67049;SDS011;53955;52.442;13.284;2023-10-19T01:22:45;18.07;;;10.17;;
67049;SDS011;53955;52.442;13.284;2023-10-19T01:25:18;21.83;;;9.93;;
67049;SDS011;53955;52.442;13.284;2023-10-19T01:27:49;18.63;;;9.47;;
67049;SDS011;53955;52.442;13.284;2023-10-19T01:30:22;18.83;;;9.57;;
67049;SDS011;53955;52.442;13.284;2023-10-19T01:32:49;16.33;;;9.23;;
67049;SDS011;53955;52.442;13.284;2023-10-19T01:35:17;18.60;;;9.40;;
67049;SDS011;53955;52.442;13.284;2023-10-19T01:37:44;19.13;;;10.13;;
67049;SDS011;53955;52.442;13.284;2023-10-19T01:40:10;17.30;;;9.90;;
67049;SDS011;53955;52.442;13.284;2023-10-19T01:42:40;18.13;;;9.47;;
67049;SDS011;53955;52.442;13.284;2023-10-19T01:45:06;16.70;;;9.70;;
67049;SDS011;53955;52.442;13.284;2023-10-19T01:47:36;20.00;;;10.30;;
67049;SDS011;53955;52.442;13.284;2023-10-19T01:50:02;17.53;;;9.97;;
67049;SDS011;53955;52.442;13.284;2023-10-19T01:52:31;19.90;;;9.87;;
67049;SDS011;53955;52.442;13.284;2023-10-19T01:54:57;17.17;;;9.67;;
67049;SDS011;53955;52.442;13.284;2023-10-19T01:57:32;18.40;;;9.97;;
67049;SDS011;53955;52.442;13.284;2023-10-19T01:59:59;19.37;;;10.43;;
67049;SDS011;53955;52.442;13.284;2023-10-19T02:02:34;19.60;;;10.97;;
67049;SDS011;53955;52.442;13.284;2023-10-19T02:05:00;14.53;;;9.07;;
67049;SDS011;53955;52.442;13.284;2023-10-19T02:07:34;17.23;;;9.53;;
67049;SDS011;53955;52.442;13.284;2023-10-19T02:10:01;20.50;;;10.00;;
67049;SDS011;53955;52.442;13.284;2023-10-19T02:12:28;17.00;;;9.67;;
67049;SDS011;53955;52.442;13.284;2023-10-19T02:14:54;18.50;;;9.77;;
67049;SDS011;53955;52.442;13.284;2023-10-19T02:17:21;16.70;;;9.90;;
67049;SDS011;53955;52.442;13.284;2023-10-19T02:19:48;16.37;;;9.90;;
67049;SDS011;53955;52.442;13.284;2023-10-19T02:22:15;19.90;;;10.05;;
67049;SDS011;53955;52.442;13.284;2023-10-19T02:24:42;16.77;;;10.57;;
67049;SDS011;53955;52.442;13.284;2023-10-19T02:27:10;19.27;;;9.80;;
67049;SDS011;53955;52.442;13.284;2023-10-19T02:29:35;18.13;;;10.30;;
67049;SDS011;53955;52.442;13.284;2023-10-19T02:32:04;19.03;;;9.40;;
67049;SDS011;53955;52.442;13.284;2023-10-19T02:34:31;17.73;;;9.57;;
67049;SDS011;53955;52.442;13.284;2023-10-19T02:36:59;18.93;;;10.60;;
67049;SDS011;53955;52.442;13.284;2023-10-19T02:39:25;16.93;;;9.90;;
67049;SDS011;53955;52.442;13.284;2023-10-19T02:41:54;17.13;;;9.47;;
67049;SDS011;53955;52.442;13.284;2023-10-19T02:44:21;17.93;;;10.10;;
67049;SDS011;53955;52.442;13.284;2023-10-19T02:46:49;17.57;;;10.27;;
67049;SDS011;53955;52.442;13.284;2023-10-19T02:49:17;20.67;;;10.13;;
67049;SDS011;53955;52.442;13.284;2023-10-19T02:51:45;17.37;;;9.57;;
67049;SDS011;53955;52.442;13.284;2023-10-19T02:54:12;17.03;;;10.20;;
67049;SDS011;53955;52.442;13.284;2023-10-19T02:56:43;19.10;;;10.20;;
67049;SDS011;53955;52.442;13.284;2023-10-19T02:59:12;18.43;;;10.80;;
67049;SDS011;53955;52.442;13.284;2023-10-19T03:01:42;17.63;;;9.90;;
67049;SDS011;53955;52.442;13.284;2023-10-19T03:04:10;21.20;;;9.63;;
67049;SDS011;53955;52.442;13.284;2023-10-19T03:06:37;17.73;;;10.30;;
67049;SDS011;53955;52.442;13.284;2023-10-19T03:09:06;21.73;;;10.77;;
67049;SDS011;53955;52.442;13.284;2023-10-19T03:11:38;19.47;;;10.37;;
67049;SDS011;53955;52.442;13.284;2023-10-19T03:14:05;19.60;;;10.03;;
67049;SDS011;53955;52.442;13.284;2023-10-19T03:16:31;22.40;;;10.70;;
67049;SDS011;53955;52.442;13.284;2023-10-19T03:18:59;18.10;;;10.60;;
67049;SDS011;53955;52.442;13.284;2023-10-19T03:21:24;21.27;;;10.53;;
67049;SDS011;53955;52.442;13.284;2023-10-19T03:23:53;18.17;;;10.43;;
67049;SDS011;53955;52.442;13.284;2023-10-19T03:26:18;17.10;;;10.33;;
67049;SDS011;53955;52.442;13.284;2023-10-19T03:28:52;18.27;;;10.70;;
67049;SDS011;53955;52.442;13.284;2023-10-19T03:31:21;16.03;;;8.27;;
67049;SDS011;53955;52.442;13.284;2023-10-19T03:33:48;17.90;;;10.73;;
67049;SDS011;53955;52.442;13.284;2023-10-19T03:36:20;19.47;;;11.20;;
67049;SDS011;53955;52.442;13.284;2023-10-19T03:38:48;17.37;;;10.40;;
67049;SDS011;53955;52.442;13.284;2023-10-19T03:41:16;17.37;;;10.43;;
67049;SDS011;53955;52.442;13.284;2023-10-19T03:43:46;18.70;;;11.30;;
67049;SDS011;53955;52.442;13.284;2023-10-19T03:46:13;22.97;;;11.20;;
67049;SDS011;53955;52.442;13.284;2023-10-19T03:48:47;21.97;;;11.57;;
67049;SDS011;53955;52.442;13.284;2023-10-19T03:51:14;18.70;;;10.23;;
67049;SDS011;53955;52.442;13.284;2023-10-19T03:53:43;19.10;;;10.50;;
67049;SDS011;53955;52.442;13.284;2023-10-19T03:56:18;20.03;;;10.80;;
67049;SDS011;53955;52.442;13.284;2023-10-19T03:58:45;19.47;;;10.37;;
67049;SDS011;53955;52.442;13.284;2023-10-19T04:01:15;19.80;;;11.83;;
67049;SDS011;53955;52.442;13.284;2023-10-19T04:03:42;20.93;;;11.93;;
67049;SDS011;53955;52.442;13.284;2023-10-19T04:06:08;21.07;;;10.60;;
67049;SDS011;53955;52.442;13.284;2023-10-19T04:08:39;21.13;;;11.37;;
67049;SDS011;53955;52.442;13.284;2023-10-19T04:11:08;20.87;;;11.87;;
67049;SDS011;53955;52.442;13.284;2023-10-19T04:13:37;21.10;;;12.37;;
67049;SDS011;53955;52.442;13.284;2023-10-19T04:16:04;20.00;;;11.03;;
67049;SDS011;53955;52.442;13.284;2023-10-19T04:18:33;22.63;;;11.53;;
67049;SDS011;53955;52.442;13.284;2023-10-19T04:21:03;21.07;;;12.17;;
67049;SDS011;53955;52.442;13.284;2023-10-19T04:23:29;24.17;;;12.43;;
67049;SDS011;53955;52.442;13.284;2023-10-19T04:26:00;22.83;;;11.33;;
67049;SDS011;53955;52.442;13.284;2023-10-19T04:28:31;24.17;;;12.17;;
67049;SDS011;53955;52.442;13.284;2023-10-19T04:31:03;22.93;;;10.87;;
67049;SDS011;53955;52.442;13.284;2023-10-19T04:33:31;20.53;;;11.30;;
67049;SDS011;53955;52.442;13.284;2023-10-19T04:35:59;19.07;;;11.20;;
67049;SDS011;53955;52.442;13.284;2023-10-19T04:38:26;20.67;;;12.57;;
67049;SDS011;53955;52.442;13.284;2023-10-19T04:40:55;24.40;;;12.20;;
67049;SDS011;53955;52.442;13.284;2023-10-19T04:43:33;21.77;;;11.40;;
67049;SDS011;53955;52.442;13.284;2023-10-19T04:46:03;20.53;;;11.93;;
67049;SDS011;53955;52.442;13.284;2023-10-19T04:48:33;22.50;;;12.23;;
67049;SDS011;53955;52.442;13.284;2023-10-19T04:51:01;24.57;;;12.27;;
67049;SDS011;53955;52.442;13.284;2023-10-19T04:53:28;22.03;;;11.80;;
67049;SDS011;53955;52.442;13.284;2023-10-19T04:55:55;18.13;;;11.23;;
67049;SDS011;53955;52.442;13.284;2023-10-19T04:58:22;19.70;;;11.40;;
67049;SDS011;53955;52.442;13.284;2023-10-19T05:00:50;20.40;;;11.50;;
67049;SDS011;53955;52.442;13.284;2023-10-19T05:03:18;23.70;;;11.57;;
67049;SDS011;53955;52.442;13.284;2023-10-19T05:05:44;23.90;;;12.77;;
67049;SDS011;53955;52.442;13.284;2023-10-19T05:08:12;23.30;;;12.00;;
67049;SDS011;53955;52.442;13.284;2023-10-19T05:10:38;23.33;;;12.43;;
67049;SDS011;53955;52.442;13.284;2023-10-19T05:13:05;21.50;;;12.73;;
67049;SDS011;53955;52.442;13.284;2023-10-19T05:15:32;21.90;;;12.20;;
67049;SDS011;53955;52.442;13.284;2023-10-19T05:18:01;27.73;;;12.23;;
67049;SDS011;53955;52.442;13.284;2023-10-19T05:20:29;24.40;;;12.17;;
67049;SDS011;53955;52.442;13.284;2023-10-19T05:22:56;25.40;;;12.87;;
67049;SDS011;53955;52.442;13.284;2023-10-19T05:25:25;22.97;;;12.13;;
67049;SDS011;53955;52.442;13.284;2023-10-19T05:27:51;28.80;;;12.83;;
67049;SDS011;53955;52.442;13.284;2023-10-19T05:30:18;30.10;;;13.40;;
67049;SDS011;53955;52.442;13.284;2023-10-19T05:32:47;21.40;;;13.00;;
67049;SDS011;53955;52.442;13.284;2023-10-19T05:35:16;22.10;;;12.27;;
67049;SDS011;53955;52.442;13.284;2023-10-19T05:37:47;23.53;;;13.50;;
67049;SDS011;53955;52.442;13.284;2023-10-19T05:40:15;25.50;;;12.97;;
67049;SDS011;53955;52.442;13.284;2023-10-19T05:42:43;21.20;;;12.83;;
67049;SDS011;53955;52.442;13.284;2023-10-19T05:45:09;24.67;;;12.70;;
67049;SDS011;53955;52.442;13.284;2023-10-19T05:47:38;27.67;;;14.23;;
67049;SDS011;53955;52.442;13.284;2023-10-19T05:50:04;23.80;;;13.73;;
67049;SDS011;53955;52.442;13.284;2023-10-19T05:52:33;24.47;;;13.47;;
67049;SDS011;53955;52.442;13.284;2023-10-19T05:54:59;22.83;;;13.00;;
67049;SDS011;53955;52.442;13.284;2023-10-19T05:57:26;27.20;;;14.63;;
67049;SDS011;53955;52.442;13.284;2023-10-19T05:59:52;27.67;;;13.93;;
67049;SDS011;53955;52.442;13.284;2023-10-19T06:02:19;28.15;;;14.65;;
67049;SDS011;53955;52.442;13.284;2023-10-19T06:04:46;27.67;;;12.47;;
67049;SDS011;53955;52.442;13.284;2023-10-19T06:07:13;25.73;;;14.17;;
67049;SDS011;53955;52.442;13.284;2023-10-19T06:09:41;31.23;;;14.93;;
67049;SDS011;53955;52.442;13.284;2023-10-19T06:12:07;24.63;;;13.53;;
67049;SDS011;53955;52.442;13.284;2023-10-19T06:14:34;23.37;;;14.07;;
67049;SDS011;53955;52.442;13.284;2023-10-19T06:17:02;26.03;;;14.17;;
67049;SDS011;53955;52.442;13.284;2023-10-19T06:19:29;29.23;;;14.10;;
67049;SDS011;53955;52.442;13.284;2023-10-19T06:21:55;34.63;;;14.70;;
67049;SDS011;53955;52.442;13.284;2023-10-19T06:24:22;25.77;;;14.07;;
67049;SDS011;53955;52.442;13.284;2023-10-19T06:26:50;26.10;;;13.60;;
67049;SDS011;53955;52.442;13.284;2023-10-19T06:29:17;26.10;;;14.30;;
67049;SDS011;53955;52.442;13.284;2023-10-19T06:31:44;27.77;;;14.57;;
67049;SDS011;53955;52.442;13.284;2023-10-19T06:34:10;25.73;;;14.27;;
67049;SDS011;53955;52.442;13.284;2023-10-19T06:36:37;25.80;;;14.27;;
67049;SDS011;53955;52.442;13.284;2023-10-19T06:39:03;31.00;;;15.07;;
67049;SDS011;53955;52.442;13.284;2023-10-19T06:41:31;24.20;;;12.73;;
67049;SDS011;53955;52.442;13.284;2023-10-19T06:43:59;26.60;;;14.77;;
67049;SDS011;53955;52.442;13.284;2023-10-19T06:46:26;27.57;;;14.30;;
67049;SDS011;53955;52.442;13.284;2023-10-19T06:48:52;28.03;;;15.10;;
67049;SDS011;53955;52.442;13.284;2023-10-19T06:51:22;25.83;;;14.50;;
67049;SDS011;53955;52.442;13.284;2023-10-19T06:53:52;25.80;;;15.00;;
67049;SDS011;53955;52.442;13.284;2023-10-19T06:56:19;27.43;;;14.97;;
67049;SDS011;53955;52.442;13.284;2023-10-19T06:58:45;32.13;;;16.73;;
67049;SDS011;53955;52.442;13.284;2023-10-19T07:01:14;27.00;;;15.70;;
67049;SDS011;53955;52.442;13.284;2023-10-19T07:03:42;26.50;;;14.43;;
67049;SDS011;53955;52.442;13.284;2023-10-19T07:06:10;27.93;;;14.60;;
67049;SDS011;53955;52.442;13.284;2023-10-19T07:08:38;27.80;;;14.43;;
67049;SDS011;53955;52.442;13.284;2023-10-19T07:11:06;28.60;;;15.10;;
67049;SDS011;53955;52.442;13.284;2023-10-19T07:13:32;28.77;;;14.70;;
67049;SDS011;53955;52.442;13.284;2023-10-19T07:15:59;27.83;;;13.30;;
67049;SDS011;53955;52.442;13.284;2023-10-19T07:18:27;28.93;;;15.40;;
67049;SDS011;53955;52.442;13.284;2023-10-19T07:20:54;28.43;;;14.90;;
67049;SDS011;53955;52.442;13.284;2023-10-19T07:23:27;26.83;;;14.60;;
67049;SDS011;53955;52.442;13.284;2023-10-19T07:25:54;29.10;;;14.70;;
67049;SDS011;53955;52.442;13.284;2023-10-19T07:28:24;25.23;;;14.50;;
67049;SDS011;53955;52.442;13.284;2023-10-19T07:30:52;26.13;;;15.17;;
67049;SDS011;53955;52.442;13.284;2023-10-19T07:33:19;27.00;;;14.50;;
67049;SDS011;53955;52.442;13.284;2023-10-19T07:35:47;26.07;;;14.63;;
67049;SDS011;53955;52.442;13.284;2023-10-19T07:38:17;24.87;;;14.57;;
67049;SDS011;53955;52.442;13.284;2023-10-19T07:40:46;27.77;;;14.60;;
67049;SDS011;53955;52.442;13.284;2023-10-19T07:43:13;24.43;;;13.93;;
67049;SDS011;53955;52.442;13.284;2023-10-19T07:45:39;25.20;;;13.60;;
67049;SDS011;53955;52.442;13.284;2023-10-19T07:48:07;24.33;;;13.87;;
67049;SDS011;53955;52.442;13.284;2023-10-19T07:50:36;24.47;;;14.90;;
67049;SDS011;53955;52.442;13.284;2023-10-19T07:53:06;31.50;;;15.20;;
67049;SDS011;53955;52.442;13.284;2023-10-19T07:55:34;26.60;;;15.03;;
67049;SDS011;53955;52.442;13.284;2023-10-19T07:58:01;28.23;;;14.33;;
67049;SDS011;53955;52.442;13.284;2023-10-19T08:00:28;25.83;;;14.10;;
67049;SDS011;53955;52.442;13.284;2023-10-19T08:02:55;27.63;;;14.30;;
67049;SDS011;53955;52.442;13.284;2023-10-19T08:05:23;24.07;;;14.03;;
67049;SDS011;53955;52.442;13.284;2023-10-19T08:07:49;27.37;;;14.73;;
67049;SDS011;53955;52.442;13.284;2023-10-19T08:10:18;23.63;;;13.30;;
67049;SDS011;53955;52.442;13.284;2023-10-19T08:12:46;23.37;;;13.87;;
67049;SDS011;53955;52.442;13.284;2023-10-19T08:15:14;28.87;;;14.27;;
67049;SDS011;53955;52.442;13.284;2023-10-19T08:17:42;24.63;;;14.10;;
67049;SDS011;53955;52.442;13.284;2023-10-19T08:20:10;27.37;;;13.93;;
67049;SDS011;53955;52.442;13.284;2023-10-19T08:22:42;23.07;;;13.63;;
67049;SDS011;53955;52.442;13.284;2023-10-19T08:25:09;29.10;;;13.00;;
67049;SDS011;53955;52.442;13.284;2023-10-19T08:27:39;26.53;;;13.50;;
67049;SDS011;53955;52.442;13.284;2023-10-19T08:30:06;23.97;;;13.47;;
67049;SDS011;53955;52.442;13.284;2023-10-19T08:32:35;24.60;;;13.47;;
67049;SDS011;53955;52.442;13.284;2023-10-19T08:35:01;24.43;;;14.03;;
67049;SDS011;53955;52.442;13.284;2023-10-19T08:37:28;25.10;;;13.97;;
67049;SDS011;53955;52.442;13.284;2023-10-19T08:39:55;36.80;;;13.70;;
67049;SDS011;53955;52.442;13.284;2023-10-19T08:42:23;28.90;;;14.80;;
67049;SDS011;53955;52.442;13.284;2023-10-19T08:44:51;28.37;;;14.13;;
67049;SDS011;53955;52.442;13.284;2023-10-19T08:47:18;26.77;;;14.57;;
67049;SDS011;53955;52.442;13.284;2023-10-19T08:49:46;26.60;;;13.23;;
67049;SDS011;53955;52.442;13.284;2023-10-19T08:52:12;25.30;;;14.20;;
67049;SDS011;53955;52.442;13.284;2023-10-19T08:54:41;24.30;;;13.80;;
67049;SDS011;53955;52.442;13.284;2023-10-19T08:57:08;24.73;;;13.53;;
67049;SDS011;53955;52.442;13.284;2023-10-19T08:59:36;26.80;;;13.63;;
67049;SDS011;53955;52.442;13.284;2023-10-19T09:02:04;24.20;;;14.37;;
67049;SDS011;53955;52.442;13.284;2023-10-19T09:04:32;25.37;;;13.43;;
67049;SDS011;53955;52.442;13.284;2023-10-19T09:06:58;23.27;;;14.00;;
67049;SDS011;53955;52.442;13.284;2023-10-19T09:09:26;25.77;;;14.73;;
67049;SDS011;53955;52.442;13.284;2023-10-19T09:11:57;26.80;;;14.27;;
67049;SDS011;53955;52.442;13.284;2023-10-19T09:14:33;24.67;;;14.17;;
67049;SDS011;53955;52.442;13.284;2023-10-19T09:17:06;23.50;;;13.90;;
67049;SDS011;53955;52.442;13.284;2023-10-19T09:19:36;25.43;;;14.57;;
67049;SDS011;53955;52.442;13.284;2023-10-19T09:22:04;24.57;;;14.97;;
67049;SDS011;53955;52.442;13.284;2023-10-19T09:24:32;25.20;;;14.63;;
67049;SDS011;53955;52.442;13.284;2023-10-19T09:27:00;26.33;;;14.80;;
67049;SDS011;53955;52.442;13.284;2023-10-19T09:29:28;24.70;;;13.50;;
67049;SDS011;53955;52.442;13.284;2023-10-19T09:31:56;23.77;;;14.23;;
67049;SDS011;53955;52.442;13.284;2023-10-19T09:34:29;22.03;;;14.13;;
67049;SDS011;53955;52.442;13.284;2023-10-19T09:36:58;28.07;;;14.33;;
67049;SDS011;53955;52.442;13.284;2023-10-19T09:39:25;23.40;;;14.03;;
67049;SDS011;53955;52.442;13.284;2023-10-19T09:41:59;32.13;;;14.67;;
67049;SDS011;53955;52.442;13.284;2023-10-19T09:44:30;25.30;;;13.80;;
67049;SDS011;53955;52.442;13.284;2023-10-19T09:47:01;24.63;;;13.83;;
67049;SDS011;53955;52.442;13.284;2023-10-19T09:49:33;28.13;;;14.13;;
67049;SDS011;53955;52.442;13.284;2023-10-19T09:51:59;24.37;;;13.77;;
67049;SDS011;53955;52.442;13.284;2023-10-19T09:54:31;26.67;;;14.47;;
67049;SDS011;53955;52.442;13.284;2023-10-19T09:57:09;26.83;;;13.40;;
67049;SDS011;53955;52.442;13.284;2023-10-19T09:59:41;31.03;;;14.83;;
67049;SDS011;53955;52.442;13.284;2023-10-19T10:02:12;25.03;;;14.30;;
67049;SDS011;53955;52.442;13.284;2023-10-19T10:04:41;26.03;;;15.00;;
67049;SDS011;53955;52.442;13.284;2023-10-19T10:07:10;21.47;;;13.70;;
67049;SDS011;53955;52.442;13.284;2023-10-19T10:09:38;24.30;;;14.30;;
67049;SDS011;53955;52.442;13.284;2023-10-19T10:12:18;25.03;;;14.57;;
67049;SDS011;53955;52.442;13.284;2023-10-19T10:14:52;25.03;;;14.20;;
67049;SDS011;53955;52.442;13.284;2023-10-19T10:17:26;24.20;;;14.60;;
67049;SDS011;53955;52.442;13.284;2023-10-19T10:19:55;25.50;;;14.70;;
67049;SDS011;53955;52.442;13.284;2023-10-19T10:22:43;24.43;;;14.10;;
67049;SDS011;53955;52.442;13.284;2023-10-19T10:25:13;26.07;;;15.47;;
67049;SDS011;53955;52.442;13.284;2023-10-19T10:27:51;27.07;;;14.67;;
67049;SDS011;53955;52.442;13.284;2023-10-19T10:30:18;31.53;;;16.17;;
67049;SDS011;53955;52.442;13.284;2023-10-19T10:32:45;25.67;;;16.13;;
67049;SDS011;53955;52.442;13.284;2023-10-19T10:38:21;25.40;;;16.17;;
67049;SDS011;53955;52.442;13.284;2023-10-19T10:40:48;26.73;;;15.57;;
67049;SDS011;53955;52.442;13.284;2023-10-19T10:43:15;24.40;;;14.97;;
67049;SDS011;53955;52.442;13.284;2023-10-19T10:45:43;26.63;;;15.57;;
67049;SDS011;53955;52.442;13.284;2023-10-19T10:48:13;26.13;;;15.10;;
67049;SDS011;53955;52.442;13.284;2023-10-19T10:50:40;24.10;;;14.73;;
67049;SDS011;53955;52.442;13.284;2023-10-19T10:53:08;23.13;;;15.47;;
67049;SDS011;53955;52.442;13.284;2023-10-19T10:55:37;27.30;;;15.87;;
67049;SDS011;53955;52.442;13.284;2023-10-19T10:58:04;28.03;;;16.50;;
67049;SDS011;53955;52.442;13.284;2023-10-19T11:00:31;29.40;;;16.47;;
67049;SDS011;53955;52.442;13.284;2023-10-19T11:02:59;27.03;;;15.90;;
67049;SDS011;53955;52.442;13.284;2023-10-19T11:05:26;27.60;;;15.20;;
67049;SDS011;53955;52.442;13.284;2023-10-19T11:08:03;26.37;;;15.97;;
67049;SDS011;53955;52.442;13.284;2023-10-19T11:10:38;27.07;;;16.33;;
67049;SDS011;53955;52.442;13.284;2023-10-19T11:13:07;27.53;;;16.50;;
67049;SDS011;53955;52.442;13.284;2023-10-19T11:15:36;27.77;;;16.33;;
67049;SDS011;53955;52.442;13.284;2023-10-19T11:18:03;26.03;;;15.10;;
67049;SDS011;53955;52.442;13.284;2023-10-19T11:20:32;27.20;;;16.23;;
67049;SDS011;53955;52.442;13.284;2023-10-19T11:23:00;30.40;;;16.53;;
67049;SDS011;53955;52.442;13.284;2023-10-19T11:25:29;24.97;;;16.53;;
67049;SDS011;53955;52.442;13.284;2023-10-19T11:27:57;26.50;;;15.73;;
67049;SDS011;53955;52.442;13.284;2023-10-19T11:30:24;27.27;;;16.20;;
67049;SDS011;53955;52.442;13.284;2023-10-19T11:32:52;27.47;;;14.80;;
67049;SDS011;53955;52.442;13.284;2023-10-19T11:35:22;27.63;;;16.73;;
67049;SDS011;53955;52.442;13.284;2023-10-19T11:37:49;26.63;;;15.77;;
67049;SDS011;53955;52.442;13.284;2023-10-19T11:40:18;24.73;;;15.30;;
67049;SDS011;53955;52.442;13.284;2023-10-19T11:42:47;21.70;;;14.60;;
67049;SDS011;53955;52.442;13.284;2023-10-19T11:45:13;25.57;;;15.23;;
67049;SDS011;53955;52.442;13.284;2023-10-19T11:47:41;26.47;;;14.23;;
67049;SDS011;53955;52.442;13.284;2023-10-19T11:50:08;24.93;;;14.33;;
67049;SDS011;53955;52.442;13.284;2023-10-19T11:52:37;23.57;;;14.93;;
67049;SDS011;53955;52.442;13.284;2023-10-19T11:55:04;25.63;;;14.83;;
67049;SDS011;53955;52.442;13.284;2023-10-19T11:57:33;22.67;;;14.03;;
67049;SDS011;53955;52.442;13.284;2023-10-19T12:00:01;28.57;;;15.30;;
67049;SDS011;53955;52.442;13.284;2023-10-19T12:02:33;30.10;;;15.77;;
67049;SDS011;53955;52.442;13.284;2023-10-19T12:05:02;22.80;;;14.53;;
67049;SDS011;53955;52.442;13.284;2023-10-19T12:07:29;25.87;;;15.87;;
67049;SDS011;53955;52.442;13.284;2023-10-19T12:09:57;27.67;;;15.77;;
67049;SDS011;53955;52.442;13.284;2023-10-19T12:12:24;22.17;;;14.67;;
67049;SDS011;53955;52.442;13.284;2023-10-19T12:14:50;28.97;;;15.27;;
67049;SDS011;53955;52.442;13.284;2023-10-19T12:17:20;26.60;;;15.10;;
67049;SDS011;53955;52.442;13.284;2023-10-19T12:19:48;26.80;;;14.77;;
67049;SDS011;53955;52.442;13.284;2023-10-19T12:22:14;28.53;;;14.47;;
67049;SDS011;53955;52.442;13.284;2023-10-19T12:24:41;27.40;;;15.90;;
67049;SDS011;53955;52.442;13.284;2023-10-19T12:27:08;29.30;;;15.43;;
67049;SDS011;53955;52.442;13.284;2023-10-19T12:29:35;26.60;;;15.03;;
67049;SDS011;53955;52.442;13.284;2023-10-19T12:32:02;29.43;;;15.97;;
67049;SDS011;53955;52.442;13.284;2023-10-19T12:34:30;27.20;;;15.73;;
67049;SDS011;53955;52.442;13.284;2023-10-19T12:36:56;27.90;;;15.70;;
67049;SDS011;53955;52.442;13.284;2023-10-19T12:39:23;26.60;;;15.63;;
67049;SDS011;53955;52.442;13.284;2023-10-19T12:42:07;26.80;;;16.47;;
67049;SDS011;53955;52.442;13.284;2023-10-19T12:44:34;30.13;;;16.50;;
67049;SDS011;53955;52.442;13.284;2023-10-19T12:47:06;27.93;;;17.30;;
67049;SDS011;53955;52.442;13.284;2023-10-19T12:49:36;29.97;;;16.40;;
67049;SDS011;53955;52.442;13.284;2023-10-19T12:52:03;28.00;;;16.53;;
67049;SDS011;53955;52.442;13.284;2023-10-19T12:54:32;31.20;;;16.47;;
67049;SDS011;53955;52.442;13.284;2023-10-19T12:56:58;28.93;;;17.13;;
67049;SDS011;53955;52.442;13.284;2023-10-19T12:59:25;29.83;;;17.27;;
67049;SDS011;53955;52.442;13.284;2023-10-19T13:01:51;31.10;;;16.40;;
67049;SDS011;53955;52.442;13.284;2023-10-19T13:04:22;28.80;;;16.67;;
67049;SDS011;53955;52.442;13.284;2023-10-19T13:06:50;28.20;;;16.77;;
67049;SDS011;53955;52.442;13.284;2023-10-19T13:09:22;28.90;;;17.60;;
67049;SDS011;53955;52.442;13.284;2023-10-19T13:11:55;29.23;;;17.47;;
67049;SDS011;53955;52.442;13.284;2023-10-19T13:14:22;30.80;;;17.07;;
67049;SDS011;53955;52.442;13.284;2023-10-19T13:16:49;28.20;;;16.87;;
67049;SDS011;53955;52.442;13.284;2023-10-19T13:19:16;26.53;;;16.27;;
67049;SDS011;53955;52.442;13.284;2023-10-19T13:21:45;30.43;;;17.50;;
67049;SDS011;53955;52.442;13.284;2023-10-19T13:24:15;28.47;;;16.60;;
67049;SDS011;53955;52.442;13.284;2023-10-19T13:26:42;30.30;;;16.90;;
67049;SDS011;53955;52.442;13.284;2023-10-19T13:29:11;28.77;;;17.33;;
67049;SDS011;53955;52.442;13.284;2023-10-19T13:31:38;32.93;;;18.77;;
67049;SDS011;53955;52.442;13.284;2023-10-19T13:34:05;27.77;;;17.00;;
67049;SDS011;53955;52.442;13.284;2023-10-19T13:36:35;35.83;;;18.37;;
67049;SDS011;53955;52.442;13.284;2023-10-19T13:39:01;31.90;;;17.27;;
67049;SDS011;53955;52.442;13.284;2023-10-19T13:41:30;30.93;;;16.97;;
67049;SDS011;53955;52.442;13.284;2023-10-19T13:43:56;28.47;;;17.43;;
67049;SDS011;53955;52.442;13.284;2023-10-19T13:46:23;32.20;;;18.87;;
67049;SDS011;53955;52.442;13.284;2023-10-19T13:48:50;27.90;;;17.30;;
67049;SDS011;53955;52.442;13.284;2023-10-19T13:51:16;30.97;;;17.80;;
67049;SDS011;53955;52.442;13.284;2023-10-19T13:53:44;33.67;;;19.43;;
67049;SDS011;53955;52.442;13.284;2023-10-19T13:56:11;35.70;;;18.95;;
67049;SDS011;53955;52.442;13.284;2023-10-19T13:58:41;31.60;;;18.97;;
67049;SDS011;53955;52.442;13.284;2023-10-19T14:01:08;31.13;;;18.80;;
67049;SDS011;53955;52.442;13.284;2023-10-19T14:03:35;32.57;;;18.50;;
67049;SDS011;53955;52.442;13.284;2023-10-19T14:06:02;32.40;;;19.63;;
67049;SDS011;53955;52.442;13.284;2023-10-19T14:08:29;34.90;;;19.47;;
67049;SDS011;53955;52.442;13.284;2023-10-19T14:11:00;34.20;;;19.27;;
67049;SDS011;53955;52.442;13.284;2023-10-19T14:13:28;34.33;;;19.00;;
67049;SDS011;53955;52.442;13.284;2023-10-19T14:15:56;30.47;;;18.80;;
67049;SDS011;53955;52.442;13.284;2023-10-19T14:18:22;33.40;;;19.50;;
67049;SDS011;53955;52.442;13.284;2023-10-19T14:20:49;34.17;;;18.80;;
67049;SDS011;53955;52.442;13.284;2023-10-19T14:23:15;28.63;;;18.17;;